Time;durP1;ratioP1;P1;durP2;ratioP2;P2;SDS_P1;SDS_P2;PMS_P1;PMS_P2;Temp;Humidity;BMP_temperature;BMP_pressure;BME280_temperature;BME280_humidity;BME280_pressure;Samples;Min_cycle;Max_cycle;Signal;HPM_P1;HPM_P2
2022/05/15 00:01:53;;;;;;;10.25;3.20;;;;;;;;;;5062103;28;20128;-71
2022/05/15 00:04:19;;;;;;;11.90;3.75;;;;;;;;;;5061435;28;20784;-71
2022/05/15 00:06:45;;;;;;;10.50;3.40;;;;;;;;;;5045272;28;20721;-71
2022/05/15 00:09:11;;;;;;;11.43;3.70;;;;;;;;;;5061549;28;20044;-71
2022/05/15 00:11:37;;;;;;;10.38;3.60;;;;;;;;;;5061318;28;20158;-71
2022/05/15 00:14:03;;;;;;;10.10;4.10;;;;;;;;;;5061501;28;20056;-71
2022/05/15 00:16:33;;;;;;;8.68;3.60;;;;;;;;;;5044798;28;20040;-71
2022/05/15 00:19:00;;;;;;;9.93;3.35;;;;;;;;;;5061454;28;20048;-71
2022/05/15 00:21:26;;;;;;;9.77;3.50;;;;;;;;;;5044604;28;20043;-71
2022/05/15 00:23:52;;;;;;;10.15;3.25;;;;;;;;;;5044795;28;20043;-71
2022/05/15 00:26:18;;;;;;;7.68;2.92;;;;;;;;;;5061399;28;20048;-71
2022/05/15 00:28:44;;;;;;;8.73;3.20;;;;;;;;;;5060790;28;20037;-71
2022/05/15 00:31:10;;;;;;;9.82;3.58;;;;;;;;;;5061487;28;20702;-71
2022/05/15 00:33:36;;;;;;;10.18;3.70;;;;;;;;;;5062262;28;20056;-71
2022/05/15 00:36:03;;;;;;;9.13;3.45;;;;;;;;;;5065105;28;20055;-71
2022/05/15 00:38:29;;;;;;;12.50;3.95;;;;;;;;;;5048334;28;20029;-71
2022/05/15 00:40:55;;;;;;;9.63;3.67;;;;;;;;;;5065338;28;20651;-71
2022/05/15 00:43:35;;;;;;;8.70;3.10;;;;;;;;;;5064995;28;20044;-71
2022/05/15 00:46:01;;;;;;;11.00;3.53;;;;;;;;;;5065098;28;20075;-71
2022/05/15 00:48:27;;;;;;;7.75;2.67;;;;;;;;;;5063538;28;20692;-71
2022/05/15 00:50:54;;;;;;;8.50;3.17;;;;;;;;;;5071938;28;20032;-71
2022/05/15 00:53:20;;;;;;;8.48;3.30;;;;;;;;;;5068481;28;20039;-71
2022/05/15 00:55:49;;;;;;;7.60;2.85;;;;;;;;;;5085518;28;20101;-71
2022/05/15 00:58:17;;;;;;;9.43;3.03;;;;;;;;;;5085123;28;20424;-71
2022/05/15 01:00:44;;;;;;;8.65;3.10;;;;;;;;;;5065276;28;20044;-71
2022/05/15 01:03:10;;;;;;;9.65;3.45;;;;;;;;;;5050275;28;20037;-71
2022/05/15 01:05:38;;;;;;;8.50;3.25;;;;;;;;;;5044578;28;20487;-71
2022/05/15 01:08:04;;;;;;;10.80;3.50;;;;;;;;;;5044735;28;20037;-71
2022/05/15 01:10:30;;;;;;;6.97;2.67;;;;;;;;;;5045229;28;20044;-70
2022/05/15 01:12:59;;;;;;;9.07;3.08;;;;;;;;;;5044793;28;20131;-70
2022/05/15 01:15:26;;;;;;;6.57;3.08;;;;;;;;;;5028060;28;20041;-70
2022/05/15 01:17:53;;;;;;;8.75;3.08;;;;;;;;;;5043972;28;20085;-71
2022/05/15 01:20:21;;;;;;;7.68;2.78;;;;;;;;;;5043659;28;20033;-70
2022/05/15 01:22:47;;;;;;;8.55;3.40;;;;;;;;;;5044061;28;20033;-70
2022/05/15 01:25:21;;;;;;;9.00;3.38;;;;;;;;;;5027926;28;20119;-71
2022/05/15 01:28:01;;;;;;;7.75;3.10;;;;;;;;;;5044305;28;20493;-70
2022/05/15 01:30:27;;;;;;;10.02;2.90;;;;;;;;;;5027513;28;20040;-70
2022/05/15 01:32:53;;;;;;;8.13;3.28;;;;;;;;;;5043899;28;20087;-71
2022/05/15 01:35:19;;;;;;;8.88;3.00;;;;;;;;;;5044159;28;20048;-71
2022/05/15 01:37:46;;;;;;;11.52;3.42;;;;;;;;;;5044249;28;20762;-71
2022/05/15 01:40:12;;;;;;;10.07;3.13;;;;;;;;;;5044572;28;20063;-71
2022/05/15 01:42:38;;;;;;;9.25;2.95;;;;;;;;;;5027232;28;20044;-70
2022/05/15 01:45:05;;;;;;;7.32;2.75;;;;;;;;;;5067465;28;20462;-71
2022/05/15 01:47:32;;;;;;;7.80;2.80;;;;;;;;;;5047240;28;20036;-71
2022/05/15 01:49:58;;;;;;;8.52;3.08;;;;;;;;;;5063320;28;20700;-71
2022/05/15 01:52:24;;;;;;;7.88;2.95;;;;;;;;;;5063837;28;20048;-71
2022/05/15 01:54:50;;;;;;;8.38;3.30;;;;;;;;;;5062497;28;20036;-70
2022/05/15 01:57:16;;;;;;;8.57;2.80;;;;;;;;;;5062603;28;20083;-70
2022/05/15 01:59:42;;;;;;;9.02;3.25;;;;;;;;;;5062505;28;20089;-70
2022/05/15 02:02:08;;;;;;;8.82;2.90;;;;;;;;;;5062679;28;20610;-70
2022/05/15 02:04:34;;;;;;;9.60;2.92;;;;;;;;;;5046940;28;20405;-71
2022/05/15 02:07:00;;;;;;;9.30;2.78;;;;;;;;;;5063931;28;20093;-71
2022/05/15 02:09:27;;;;;;;10.30;3.00;;;;;;;;;;5047261;28;20131;-71
2022/05/15 02:11:53;;;;;;;7.60;2.72;;;;;;;;;;5064012;28;20040;-71
2022/05/15 02:14:19;;;;;;;7.97;2.60;;;;;;;;;;5046741;28;20032;-70
2022/05/15 02:16:45;;;;;;;8.55;3.00;;;;;;;;;;5063693;28;20549;-71
2022/05/15 02:19:11;;;;;;;7.85;3.15;;;;;;;;;;5063447;28;20036;-70
2022/05/15 02:21:37;;;;;;;9.00;3.28;;;;;;;;;;5076624;28;20070;-70
2022/05/15 02:24:03;;;;;;;8.88;2.72;;;;;;;;;;5083438;28;20105;-70
2022/05/15 02:26:29;;;;;;;9.55;3.00;;;;;;;;;;5083722;28;20040;-71
2022/05/15 02:28:55;;;;;;;9.88;3.00;;;;;;;;;;5082947;28;20036;-70
2022/05/15 02:31:21;;;;;;;10.30;3.33;;;;;;;;;;5083531;28;20578;-71
2022/05/15 02:33:47;;;;;;;10.07;3.40;;;;;;;;;;5083288;28;20062;-71
2022/05/15 02:36:13;;;;;;;7.53;2.63;;;;;;;;;;5075795;28;20033;-70
2022/05/15 02:38:39;;;;;;;7.55;3.00;;;;;;;;;;5062531;28;20405;-70
2022/05/15 02:41:05;;;;;;;7.38;2.40;;;;;;;;;;5048710;28;20048;-71
2022/05/15 02:43:32;;;;;;;9.40;3.17;;;;;;;;;;5069424;28;20535;-71
2022/05/15 02:45:58;;;;;;;9.43;2.67;;;;;;;;;;5083524;28;20072;-71
2022/05/15 02:51:08;;;;;;;;;;;;;;;;;;5083734;28;20047;-71
2022/05/15 02:53:39;;;;;;;10.52;2.95;;;;;;;;;;5066328;28;19923;-71
2022/05/15 02:56:16;;;;;;;10.55;3.55;;;;;;;;;;5066039;28;20070;-71
2022/05/15 02:58:42;;;;;;;8.63;3.03;;;;;;;;;;5082814;28;20036;-71
2022/05/15 03:01:08;;;;;;;10.38;3.25;;;;;;;;;;5066067;28;20085;-70
2022/05/15 03:03:34;;;;;;;7.90;2.50;;;;;;;;;;5065103;28;20047;-71
2022/05/15 03:06:00;;;;;;;7.43;2.60;;;;;;;;;;5082786;28;20085;-70
2022/05/15 03:08:26;;;;;;;9.00;2.72;;;;;;;;;;5082921;28;20048;-70
2022/05/15 03:10:52;;;;;;;9.68;2.53;;;;;;;;;;5065866;28;20032;-71
2022/05/15 03:13:18;;;;;;;10.75;3.20;;;;;;;;;;5082665;28;20044;-70
2022/05/15 03:15:44;;;;;;;9.52;2.70;;;;;;;;;;5061075;28;20770;-71
2022/05/15 03:18:10;;;;;;;9.60;2.85;;;;;;;;;;5062112;28;20148;-71
2022/05/15 03:20:36;;;;;;;9.93;3.10;;;;;;;;;;5062448;28;20036;-70
2022/05/15 03:23:02;;;;;;;9.93;2.90;;;;;;;;;;5062325;28;20536;-70
2022/05/15 03:25:30;;;;;;;9.95;2.97;;;;;;;;;;5062224;28;20028;-70
2022/05/15 03:27:56;;;;;;;8.90;3.05;;;;;;;;;;5045256;28;20044;-71
2022/05/15 03:30:22;;;;;;;7.53;2.90;;;;;;;;;;5061775;28;20185;-71
2022/05/15 03:32:48;;;;;;;9.63;3.42;;;;;;;;;;5079028;28;20102;-71
2022/05/15 03:35:14;;;;;;;8.95;3.22;;;;;;;;;;5064724;28;20100;-70
2022/05/15 03:37:41;;;;;;;8.38;2.63;;;;;;;;;;5082025;28;20036;-70
2022/05/15 03:40:07;;;;;;;9.93;3.13;;;;;;;;;;5065225;28;20624;-70
2022/05/15 03:42:33;;;;;;;8.45;3.10;;;;;;;;;;5065555;28;20162;-71
2022/05/15 03:44:59;;;;;;;8.45;2.90;;;;;;;;;;5083642;28;20155;-81
2022/05/15 03:47:25;;;;;;;7.47;2.60;;;;;;;;;;5086887;28;20209;-81
2022/05/15 03:49:51;;;;;;;7.38;2.85;;;;;;;;;;5086487;28;20048;-80
2022/05/15 03:52:17;;;;;;;9.23;2.97;;;;;;;;;;5059303;28;20189;-80
2022/05/15 03:54:44;;;;;;;7.20;2.55;;;;;;;;;;5066021;28;20608;-80
2022/05/15 03:57:10;;;;;;;8.70;2.65;;;;;;;;;;5066361;28;20714;-80
2022/05/15 03:59:38;;;;;;;8.02;2.63;;;;;;;;;;5065755;28;20048;-80
2022/05/15 04:02:05;;;;;;;9.23;2.70;;;;;;;;;;5066283;28;20041;-79
2022/05/15 04:04:32;;;;;;;7.65;2.63;;;;;;;;;;5049550;28;20044;-80
2022/05/15 04:06:58;;;;;;;8.13;2.63;;;;;;;;;;5066618;28;20048;-80
2022/05/15 04:09:25;;;;;;;11.30;3.45;;;;;;;;;;5068848;28;20117;-81
2022/05/15 04:11:51;;;;;;;7.85;2.78;;;;;;;;;;5053958;28;20395;-80
2022/05/15 04:14:17;;;;;;;7.63;2.40;;;;;;;;;;5069897;28;20044;-81
2022/05/15 04:16:43;;;;;;;10.98;3.15;;;;;;;;;;5070450;28;20072;-80
2022/05/15 04:19:09;;;;;;;8.88;2.85;;;;;;;;;;5069660;28;20040;-80
2022/05/15 04:21:40;;;;;;;8.25;2.53;;;;;;;;;;5070113;28;20105;-80
2022/05/15 04:24:14;;;;;;;8.35;2.78;;;;;;;;;;5076682;28;20123;-81
2022/05/15 04:26:41;;;;;;;8.32;2.55;;;;;;;;;;5090343;28;20036;-80
2022/05/15 04:29:07;;;;;;;9.30;2.97;;;;;;;;;;5090177;28;20044;-80
2022/05/15 04:31:34;;;;;;;7.82;2.97;;;;;;;;;;5085257;28;20056;-80
2022/05/15 04:34:00;;;;;;;9.82;2.90;;;;;;;;;;5052326;28;20505;-80
2022/05/15 04:36:26;;;;;;;9.63;3.15;;;;;;;;;;5069618;28;20052;-80
2022/05/15 04:38:52;;;;;;;9.98;2.88;;;;;;;;;;5080805;28;20024;-80
2022/05/15 04:41:19;;;;;;;10.98;2.70;;;;;;;;;;5090237;28;20552;-80
2022/05/15 04:43:46;;;;;;;8.13;2.42;;;;;;;;;;5090939;28;20681;-81
2022/05/15 04:46:12;;;;;;;8.73;2.60;;;;;;;;;;5090019;28;20047;-80
2022/05/15 04:48:38;;;;;;;6.90;2.35;;;;;;;;;;5089950;28;20040;-79
2022/05/15 04:51:04;;;;;;;9.75;2.95;;;;;;;;;;5072568;28;20046;-79
2022/05/15 04:53:31;;;;;;;6.60;2.50;;;;;;;;;;5070011;28;20033;-80
2022/05/15 04:55:57;;;;;;;9.35;2.60;;;;;;;;;;5071103;28;20090;-80
2022/05/15 04:58:23;;;;;;;6.57;2.78;;;;;;;;;;5089447;28;20044;-80
2022/05/15 05:00:50;;;;;;;8.23;2.90;;;;;;;;;;5072987;28;20065;-80
2022/05/15 05:03:16;;;;;;;6.53;2.60;;;;;;;;;;5089760;28;20040;-80
2022/05/15 05:05:42;;;;;;;9.10;2.90;;;;;;;;;;5089793;28;20032;-80
2022/05/15 05:08:08;;;;;;;8.85;2.85;;;;;;;;;;5072647;28;20687;-80
2022/05/15 05:10:34;;;;;;;8.48;2.60;;;;;;;;;;5089261;28;20076;-80
2022/05/15 05:13:00;;;;;;;7.60;2.78;;;;;;;;;;5073053;28;20039;-80
2022/05/15 05:15:26;;;;;;;8.25;2.90;;;;;;;;;;5089373;28;20093;-79
2022/05/15 05:17:52;;;;;;;8.48;3.03;;;;;;;;;;5089553;28;20729;-80
2022/05/15 05:20:18;;;;;;;10.38;2.85;;;;;;;;;;5089574;28;20040;-80
2022/05/15 05:22:44;;;;;;;8.75;2.90;;;;;;;;;;5089285;28;20047;-80
2022/05/15 05:25:10;;;;;;;8.57;2.88;;;;;;;;;;5089650;28;20040;-80
2022/05/15 05:27:37;;;;;;;9.30;2.70;;;;;;;;;;5072743;28;20048;-80
2022/05/15 05:30:05;;;;;;;7.35;2.80;;;;;;;;;;5088927;28;20115;-78
2022/05/15 05:32:31;;;;;;;8.98;3.30;;;;;;;;;;5072006;28;20044;-79
2022/05/15 05:34:57;;;;;;;10.68;3.15;;;;;;;;;;5088549;28;20047;-79
2022/05/15 05:37:23;;;;;;;8.95;2.80;;;;;;;;;;5071802;28;20048;-79
2022/05/15 05:39:49;;;;;;;7.25;2.75;;;;;;;;;;5088671;28;20152;-79
2022/05/15 05:42:15;;;;;;;10.85;3.17;;;;;;;;;;5088611;28;20569;-79
2022/05/15 05:44:41;;;;;;;10.10;3.58;;;;;;;;;;5088241;28;20122;-78
2022/05/15 05:47:07;;;;;;;8.68;3.40;;;;;;;;;;5071421;28;20039;-79
2022/05/15 05:49:33;;;;;;;9.20;3.10;;;;;;;;;;5069903;28;20077;-78
2022/05/15 05:51:59;;;;;;;8.95;3.03;;;;;;;;;;5088365;28;20059;-79
2022/05/15 05:54:25;;;;;;;11.07;3.72;;;;;;;;;;5085409;28;20036;-70
2022/05/15 05:56:51;;;;;;;10.73;2.97;;;;;;;;;;5083763;28;20040;-70
2022/05/15 05:59:17;;;;;;;10.77;3.47;;;;;;;;;;5067157;28;20040;-70
2022/05/15 06:01:43;;;;;;;9.98;3.13;;;;;;;;;;5084128;28;20043;-70
2022/05/15 06:06:53;;;;;;;8.85;2.83;;;;;;;;;;5084222;28;20047;-70
2022/05/15 06:09:19;;;;;;;10.77;3.20;;;;;;;;;;5084173;28;20055;-70
2022/05/15 06:11:45;;;;;;;9.95;3.65;;;;;;;;;;5083994;28;20126;-70
2022/05/15 06:14:11;;;;;;;9.40;3.45;;;;;;;;;;5083490;28;20135;-70
2022/05/15 06:16:38;;;;;;;12.25;4.00;;;;;;;;;;5083543;28;20047;-70
2022/05/15 06:19:04;;;;;;;8.75;3.15;;;;;;;;;;5083279;28;20036;-70
2022/05/15 06:21:30;;;;;;;10.15;3.38;;;;;;;;;;5083749;28;20543;-70
2022/05/15 06:23:56;;;;;;;10.23;3.42;;;;;;;;;;5067025;28;20044;-70
2022/05/15 06:26:22;;;;;;;8.05;2.90;;;;;;;;;;5083592;28;20038;-70
2022/05/15 06:28:48;;;;;;;11.07;3.50;;;;;;;;;;5083268;28;20644;-70
2022/05/15 06:31:14;;;;;;;8.38;3.22;;;;;;;;;;5051166;28;20065;-70
2022/05/15 06:33:40;;;;;;;10.02;3.03;;;;;;;;;;5042745;28;20063;-70
2022/05/15 06:36:06;;;;;;;11.13;3.53;;;;;;;;;;5042971;28;20548;-70
2022/05/15 06:38:32;;;;;;;11.48;3.40;;;;;;;;;;5050512;28;20051;-70
2022/05/15 06:40:58;;;;;;;9.00;3.28;;;;;;;;;;5050407;28;20036;-70
2022/05/15 06:43:24;;;;;;;9.98;2.90;;;;;;;;;;5043143;28;20611;-70
2022/05/15 06:45:50;;;;;;;8.88;2.88;;;;;;;;;;5042996;28;20078;-70
2022/05/15 06:48:16;;;;;;;11.73;2.97;;;;;;;;;;5042945;28;20622;-70
2022/05/15 06:50:43;;;;;;;10.98;2.95;;;;;;;;;;5030929;28;20033;-70
2022/05/15 06:53:12;;;;;;;9.43;3.25;;;;;;;;;;5042255;28;20670;-70
2022/05/15 06:57:28;;;;;;;10.32;2.72;;;;;;;;;;5042188;28;20044;-70
2022/05/15 06:58:24;;;;;;;8.93;3.13;;;;;;;;;;5041152;28;20076;-70
2022/05/15 07:00:50;;;;;;;12.55;3.20;;;;;;;;;;5052565;28;20524;-70
2022/05/15 07:03:16;;;;;;;8.40;2.85;;;;;;;;;;5062244;28;20056;-70
2022/05/15 07:05:42;;;;;;;8.68;3.22;;;;;;;;;;5062266;28;20048;-70
2022/05/15 07:08:10;;;;;;;10.82;2.83;;;;;;;;;;5062559;28;20602;-70
2022/05/15 07:10:36;;;;;;;9.02;3.47;;;;;;;;;;5045573;28;20036;-70
2022/05/15 07:13:02;;;;;;;11.15;3.10;;;;;;;;;;5061930;28;20118;-70
2022/05/15 07:15:29;;;;;;;10.68;3.20;;;;;;;;;;5051372;28;20683;-71
2022/05/15 07:17:55;;;;;;;9.98;3.00;;;;;;;;;;5081750;28;20044;-70
2022/05/15 07:20:21;;;;;;;9.75;2.55;;;;;;;;;;5082367;28;20064;-70
2022/05/15 07:22:47;;;;;;;8.38;2.80;;;;;;;;;;5065303;28;20074;-70
2022/05/15 07:25:13;;;;;;;10.13;3.15;;;;;;;;;;5082065;28;20097;-70
2022/05/15 07:27:39;;;;;;;8.98;3.08;;;;;;;;;;5082399;28;20104;-70
2022/05/15 07:30:06;;;;;;;8.77;2.90;;;;;;;;;;5063899;28;20982;-70
2022/05/15 07:32:32;;;;;;;10.90;3.25;;;;;;;;;;5046768;28;20040;-71
2022/05/15 07:34:58;;;;;;;10.35;2.85;;;;;;;;;;5032439;28;20048;-70
2022/05/15 07:37:24;;;;;;;10.57;3.05;;;;;;;;;;5054003;28;20051;-70
2022/05/15 07:39:50;;;;;;;9.85;2.47;;;;;;;;;;5053759;28;20037;-71
2022/05/15 07:42:16;;;;;;;7.35;2.55;;;;;;;;;;5032253;28;20061;-70
2022/05/15 07:44:42;;;;;;;8.25;2.90;;;;;;;;;;5043778;28;20086;-70
2022/05/15 07:47:11;;;;;;;9.13;3.20;;;;;;;;;;5042046;28;20043;-70
2022/05/15 07:49:37;;;;;;;9.65;3.05;;;;;;;;;;5057696;28;20036;-70
2022/05/15 07:52:04;;;;;;;8.55;2.80;;;;;;;;;;5047381;28;20059;-70
2022/05/15 07:54:30;;;;;;;7.88;2.30;;;;;;;;;;5042995;28;20102;-70
2022/05/15 07:56:56;;;;;;;10.18;3.10;;;;;;;;;;5043724;28;20044;-70
2022/05/15 07:59:25;;;;;;;9.63;2.88;;;;;;;;;;5062254;28;20036;-70
2022/05/15 08:01:54;;;;;;;8.75;2.50;;;;;;;;;;5061821;28;20681;-71
2022/05/15 08:04:20;;;;;;;9.15;2.63;;;;;;;;;;5060773;28;20048;-70
2022/05/15 08:09:31;;;;;;;;;;;;;;;;;;5061958;28;20049;-71
2022/05/15 08:11:57;;;;;;;8.75;2.60;;;;;;;;;;5061060;28;19924;-70
2022/05/15 08:14:22;;;;;;;9.68;2.83;;;;;;;;;;5024410;28;20041;-70
2022/05/15 08:16:49;;;;;;;10.52;3.47;;;;;;;;;;5041325;28;20069;-70
2022/05/15 08:24:45;;;;;;;8.00;2.65;;;;;;;;;;5049270;28;20323;-70
2022/05/15 08:27:11;;;;;;;8.93;2.65;;;;;;;;;;5053106;28;20044;-71
2022/05/15 08:29:38;;;;;;;11.93;3.00;;;;;;;;;;5046430;28;20112;-72
2022/05/15 08:32:05;;;;;;;10.48;2.78;;;;;;;;;;5055133;28;20044;-72
2022/05/15 08:34:31;;;;;;;7.68;2.20;;;;;;;;;;5035595;28;20128;-72
2022/05/15 08:36:57;;;;;;;7.60;2.53;;;;;;;;;;5055136;28;20123;-72
2022/05/15 08:39:23;;;;;;;8.93;2.65;;;;;;;;;;5027559;28;20048;-72
2022/05/15 08:41:49;;;;;;;7.28;2.42;;;;;;;;;;5044096;28;20041;-72
2022/05/15 08:44:21;;;;;;;9.13;2.65;;;;;;;;;;5040668;28;20064;-72
2022/05/15 08:46:56;;;;;;;9.88;2.80;;;;;;;;;;5024904;28;20052;-72
2022/05/15 08:49:22;;;;;;;7.82;2.67;;;;;;;;;;5055151;28;20562;-72
2022/05/15 08:51:57;;;;;;;9.15;2.83;;;;;;;;;;5060946;28;20116;-71
2022/05/15 08:54:23;;;;;;;9.95;3.25;;;;;;;;;;5045820;28;20036;-72
2022/05/15 08:56:50;;;;;;;9.27;3.17;;;;;;;;;;5048379;28;20051;-72
2022/05/15 08:59:31;;;;;;;9.70;3.17;;;;;;;;;;5049417;28;20624;-72
2022/05/15 09:01:59;;;;;;;8.85;2.95;;;;;;;;;;5078325;28;20182;-72
2022/05/15 09:04:25;;;;;;;9.88;3.08;;;;;;;;;;5058574;28;20812;-72
2022/05/15 09:06:55;;;;;;;11.60;3.50;;;;;;;;;;5060981;28;20045;-72
2022/05/15 09:09:34;;;;;;;10.00;2.80;;;;;;;;;;5050597;28;20529;-72
2022/05/15 09:12:14;;;;;;;9.93;3.40;;;;;;;;;;5053282;28;20044;-72
2022/05/15 09:14:43;;;;;;;12.10;3.58;;;;;;;;;;5044660;28;20039;-72
2022/05/15 09:17:15;;;;;;;9.23;3.30;;;;;;;;;;5084271;28;20686;-72
2022/05/15 09:19:41;;;;;;;7.20;2.50;;;;;;;;;;5030313;28;20044;-72
2022/05/15 09:22:10;;;;;;;8.38;2.65;;;;;;;;;;5048347;28;20606;-72
2022/05/15 09:24:48;;;;;;;9.07;2.95;;;;;;;;;;5043333;28;20037;-72
2022/05/15 09:27:14;;;;;;;8.00;2.90;;;;;;;;;;5026851;28;20037;-72
2022/05/15 09:29:40;;;;;;;11.57;3.50;;;;;;;;;;5043825;28;20047;-73
2022/05/15 09:32:30;;;;;;;12.27;3.80;;;;;;;;;;5032520;28;20052;-73
2022/05/15 09:34:57;;;;;;;12.65;5.57;;;;;;;;;;5045370;28;20064;-73
2022/05/15 09:40:37;;;;;;;12.27;5.18;;;;;;;;;;5062701;28;20040;-73
2022/05/15 09:45:53;;;;;;;12.23;5.75;;;;;;;;;;5062731;28;20075;-73
2022/05/15 09:48:21;;;;;;;16.23;6.88;;;;;;;;;;5062792;28;20040;-73
2022/05/15 09:50:47;;;;;;;17.60;7.82;;;;;;;;;;5063760;28;20101;-73
2022/05/15 09:53:18;;;;;;;15.00;7.43;;;;;;;;;;5062236;28;20040;-74
2022/05/15 09:55:56;;;;;;;18.75;8.02;;;;;;;;;;5038358;28;20044;-85
2022/05/15 09:58:22;;;;;;;16.70;7.22;;;;;;;;;;5056773;28;20448;-73
2022/05/15 10:00:48;;;;;;;14.65;6.68;;;;;;;;;;5058791;28;20043;-74
2022/05/15 10:03:21;;;;;;;20.80;5.47;;;;;;;;;;5043478;28;20839;-74
2022/05/15 10:05:56;;;;;;;19.53;5.27;;;;;;;;;;5060048;28;20651;-74
2022/05/15 10:08:23;;;;;;;20.75;5.35;;;;;;;;;;5062412;28;20039;-73
2022/05/15 10:11:03;;;;;;;19.45;5.35;;;;;;;;;;5031196;28;20048;-73
2022/05/15 10:13:37;;;;;;;17.52;4.38;;;;;;;;;;5045606;28;20156;-73
2022/05/15 10:16:10;;;;;;;18.25;5.30;;;;;;;;;;5063497;28;20054;-72
2022/05/15 10:18:55;;;;;;;25.30;5.38;;;;;;;;;;5057914;28;20463;-71
2022/05/15 10:21:21;;;;;;;;;;;;;;;;;;5046039;28;20597;-71
2022/05/15 10:23:49;;;;;;;20.80;4.80;;;;;;;;;;5060886;28;19923;-71
2022/05/15 10:26:21;;;;;;;18.50;4.70;;;;;;;;;;5043716;28;20120;-71
2022/05/15 10:28:54;;;;;;;20.60;5.70;;;;;;;;;;5042900;28;20596;-72
2022/05/15 10:31:23;;;;;;;17.45;4.53;;;;;;;;;;5058363;28;20159;-72
2022/05/15 10:33:51;;;;;;;20.15;5.28;;;;;;;;;;5046121;28;20052;-71
2022/05/15 10:36:36;;;;;;;21.17;4.90;;;;;;;;;;5083392;28;20044;-70
2022/05/15 10:39:14;;;;;;;19.98;5.32;;;;;;;;;;5079859;28;20048;-71
2022/05/15 10:42:13;;;;;;;20.45;5.47;;;;;;;;;;5057281;28;20088;-70
2022/05/15 10:44:58;;;;;;;17.17;3.83;;;;;;;;;;5050832;28;20064;-70
2022/05/15 10:47:28;;;;;;;22.35;5.00;;;;;;;;;;5046425;28;20072;-70
2022/05/15 10:50:00;;;;;;;22.20;4.70;;;;;;;;;;5062543;28;20071;-73
2022/05/15 10:52:38;;;;;;;17.20;5.28;;;;;;;;;;5062682;28;20040;-71
2022/05/15 10:57:48;;;;;;;;;;;;;;;;;;5062959;28;20554;-73
2022/05/15 11:00:33;;;;;;;27.95;6.15;;;;;;;;;;5045750;28;19920;-74
2022/05/15 11:03:26;;;;;;;25.45;5.57;;;;;;;;;;5049280;28;20616;-73
2022/05/15 11:06:03;;;;;;;20.60;5.25;;;;;;;;;;5050534;28;20048;-73
2022/05/15 11:08:53;;;;;;;22.75;5.15;;;;;;;;;;5047392;28;20059;-74
2022/05/15 11:11:28;;;;;;;17.33;4.75;;;;;;;;;;5051995;28;20052;-73
2022/05/15 11:14:12;;;;;;;19.15;5.18;;;;;;;;;;5044965;28;20066;-73
2022/05/15 11:16:38;;;;;;;;;;;;;;;;;;5061584;28;20543;-73
2022/05/15 11:19:17;;;;;;;18.52;5.25;;;;;;;;;;5044669;28;19917;-73
2022/05/15 11:21:50;;;;;;;18.40;4.80;;;;;;;;;;5061682;28;20677;-74
2022/05/15 11:24:16;;;;;;;20.10;4.93;;;;;;;;;;5056254;28;20040;-74
2022/05/15 11:26:45;;;;;;;19.80;4.75;;;;;;;;;;5055356;28;20649;-75
2022/05/15 11:29:13;;;;;;;16.48;4.95;;;;;;;;;;5060198;28;20082;-74
2022/05/15 11:31:44;;;;;;;17.92;5.10;;;;;;;;;;5057910;28;20678;-73
2022/05/15 11:34:10;;;;;;;16.25;4.18;;;;;;;;;;5060854;28;20048;-73
2022/05/15 11:36:41;;;;;;;19.25;4.55;;;;;;;;;;5057907;28;20696;-73
2022/05/15 11:39:13;;;;;;;17.27;4.47;;;;;;;;;;5055205;28;20036;-73
2022/05/15 11:41:39;;;;;;;16.92;4.38;;;;;;;;;;5029602;28;20036;-74
2022/05/15 11:44:31;;;;;;;20.40;4.43;;;;;;;;;;5059497;28;20044;-74
2022/05/15 11:46:59;;;;;;;13.13;4.28;;;;;;;;;;5053188;28;20029;-73
2022/05/15 11:49:36;;;;;;;15.05;4.13;;;;;;;;;;5058780;28;20051;-73
2022/05/15 11:52:05;;;;;;;15.93;4.18;;;;;;;;;;5043957;28;20037;-73
2022/05/15 11:54:39;;;;;;;20.45;4.32;;;;;;;;;;5031518;28;20032;-72
2022/05/15 11:57:05;;;;;;;;;;;;;;;;;;5050835;28;20041;-73
2022/05/15 11:59:34;;;;;;;19.90;4.35;;;;;;;;;;5045515;28;19952;-73
2022/05/15 12:02:01;;;;;;;16.00;4.03;;;;;;;;;;5040962;28;20037;-72
2022/05/15 12:04:36;;;;;;;15.25;4.25;;;;;;;;;;5042890;28;20036;-73
2022/05/15 12:07:02;;;;;;;16.38;3.90;;;;;;;;;;5041613;28;20135;-73
2022/05/15 12:09:39;;;;;;;17.02;4.10;;;;;;;;;;5043502;28;20127;-73
2022/05/15 12:12:23;;;;;;;16.40;4.20;;;;;;;;;;5026784;28;20044;-72
2022/05/15 12:15:03;;;;;;;17.25;3.92;;;;;;;;;;5040606;28;20082;-72
2022/05/15 12:17:30;;;;;;;14.05;3.80;;;;;;;;;;5054538;28;20044;-73
2022/05/15 12:20:09;;;;;;;16.98;3.97;;;;;;;;;;5056943;28;20525;-71
2022/05/15 12:22:38;;;;;;;15.80;4.25;;;;;;;;;;5061350;28;20653;-72
2022/05/15 12:25:14;;;;;;;14.68;3.67;;;;;;;;;;5061458;28;20061;-71
2022/05/15 12:28:50;;;;;;;11.05;3.22;;;;;;;;;;5044131;28;20565;-69
2022/05/15 12:30:45;;;;;;;15.23;3.30;;;;;;;;;;5064317;28;20151;-71
2022/05/15 12:33:12;;;;;;;13.60;3.60;;;;;;;;;;5065064;28;20064;-71
2022/05/15 12:35:40;;;;;;;19.50;4.78;;;;;;;;;;5048481;28;20122;-71
2022/05/15 12:38:12;;;;;;;13.32;3.58;;;;;;;;;;5031188;28;20049;-70
2022/05/15 12:40:54;;;;;;;22.73;4.25;;;;;;;;;;5028419;28;20068;-71
2022/05/15 12:43:22;;;;;;;17.85;3.90;;;;;;;;;;5045078;28;20037;-71
2022/05/15 12:45:48;;;;;;;20.40;4.47;;;;;;;;;;5060924;28;20071;-70
2022/05/15 12:48:14;;;;;;;13.60;3.53;;;;;;;;;;5048315;28;20080;-70
2022/05/15 12:50:50;;;;;;;12.93;3.03;;;;;;;;;;5064431;28;20036;-69
2022/05/15 12:53:21;;;;;;;18.08;3.85;;;;;;;;;;5065063;28;20048;-69
2022/05/15 12:55:47;;;;;;;18.17;3.72;;;;;;;;;;5064934;28;20114;-70
2022/05/15 12:58:13;;;;;;;13.65;3.47;;;;;;;;;;5067366;28;20066;-70
2022/05/15 13:00:42;;;;;;;17.00;3.42;;;;;;;;;;5084962;28;20028;-71
2022/05/15 13:03:12;;;;;;;17.70;4.28;;;;;;;;;;5051363;28;20044;-72
2022/05/15 13:05:47;;;;;;;13.93;3.67;;;;;;;;;;5064013;28;20124;-72
2022/05/15 13:08:13;;;;;;;12.38;3.10;;;;;;;;;;5045376;28;20154;-72
2022/05/15 13:10:43;;;;;;;15.90;3.60;;;;;;;;;;5057041;28;20074;-72
2022/05/15 13:13:11;;;;;;;13.07;3.08;;;;;;;;;;5064167;28;20044;-73
2022/05/15 13:15:37;;;;;;;14.50;3.25;;;;;;;;;;5047429;28;20056;-71
2022/05/15 13:18:06;;;;;;;12.45;2.55;;;;;;;;;;5046944;28;20178;-71
2022/05/15 13:20:36;;;;;;;11.30;2.78;;;;;;;;;;5046485;28;20040;-72
2022/05/15 13:23:02;;;;;;;13.80;3.25;;;;;;;;;;5057070;28;20083;-71
2022/05/15 13:25:34;;;;;;;13.23;3.10;;;;;;;;;;5046747;28;20053;-71
2022/05/15 13:28:01;;;;;;;12.15;2.97;;;;;;;;;;5055330;28;20051;-71
2022/05/15 13:30:29;;;;;;;15.85;3.95;;;;;;;;;;5061935;28;20051;-71
2022/05/15 13:32:59;;;;;;;11.32;3.10;;;;;;;;;;5043570;28;20040;-71
2022/05/15 13:35:26;;;;;;;11.32;3.00;;;;;;;;;;5055870;28;20137;-72
2022/05/15 13:37:54;;;;;;;10.48;2.78;;;;;;;;;;5054339;28;20174;-71
2022/05/15 13:43:22;;;;;;;13.25;3.13;;;;;;;;;;5046749;28;21129;-71
2022/05/15 13:45:49;;;;;;;9.00;2.25;;;;;;;;;;5053123;28;20389;-71
2022/05/15 13:48:15;;;;;;;12.02;3.33;;;;;;;;;;5063391;28;20493;-72
2022/05/15 13:50:43;;;;;;;11.45;2.88;;;;;;;;;;5062718;28;20075;-70
2022/05/15 13:53:18;;;;;;;16.48;2.83;;;;;;;;;;5060243;28;20525;-70
2022/05/15 13:55:44;;;;;;;11.70;3.10;;;;;;;;;;5040636;28;20071;-70
2022/05/15 13:58:10;;;;;;;13.60;2.95;;;;;;;;;;5045445;28;20528;-72
2022/05/15 14:00:39;;;;;;;11.90;3.10;;;;;;;;;;5062663;28;20662;-72
2022/05/15 14:03:05;;;;;;;12.15;2.60;;;;;;;;;;5062572;28;20067;-71
2022/05/15 14:05:33;;;;;;;14.45;2.70;;;;;;;;;;5045959;28;20035;-71
2022/05/15 14:08:17;;;;;;;9.50;2.60;;;;;;;;;;5063064;28;20032;-72
2022/05/15 14:10:44;;;;;;;10.20;2.42;;;;;;;;;;5046785;28;20432;-71
2022/05/15 14:13:11;;;;;;;11.02;3.13;;;;;;;;;;5056535;28;20106;-70
2022/05/15 14:15:48;;;;;;;12.75;2.53;;;;;;;;;;5038044;28;20044;-70
2022/05/15 14:18:20;;;;;;;8.98;3.03;;;;;;;;;;5052511;28;20037;-69
2022/05/15 14:20:49;;;;;;;13.60;2.60;;;;;;;;;;5059586;28;20107;-69
2022/05/15 14:23:16;;;;;;;10.10;2.33;;;;;;;;;;5057692;28;20131;-69
2022/05/15 14:25:43;;;;;;;12.60;3.08;;;;;;;;;;5058897;28;20132;-69
2022/05/15 14:28:09;;;;;;;10.02;2.42;;;;;;;;;;5059941;28;20598;-69
2022/05/15 14:30:36;;;;;;;10.70;2.40;;;;;;;;;;5039955;28;20040;-69
2022/05/15 14:33:03;;;;;;;11.50;2.30;;;;;;;;;;5061235;28;20068;-69
2022/05/15 14:35:49;;;;;;;12.02;2.97;;;;;;;;;;5057803;28;20097;-69
2022/05/15 14:38:15;;;;;;;9.57;2.45;;;;;;;;;;5044556;28;20037;-71
2022/05/15 14:40:41;;;;;;;19.05;3.22;;;;;;;;;;5062707;28;20110;-70
2022/05/15 14:43:07;;;;;;;12.43;3.08;;;;;;;;;;5045510;28;20037;-71
2022/05/15 14:45:38;;;;;;;10.73;3.08;;;;;;;;;;5062501;28;20071;-70
2022/05/15 14:48:06;;;;;;;35.28;4.18;;;;;;;;;;5045391;28;20043;-71
2022/05/15 14:50:32;;;;;;;11.20;2.78;;;;;;;;;;5045421;28;20048;-71
2022/05/15 14:53:01;;;;;;;10.43;2.72;;;;;;;;;;5060751;28;20086;-70
2022/05/15 14:58:15;;;;;;;10.23;2.92;;;;;;;;;;5066130;28;20052;-72
2022/05/15 15:00:42;;;;;;;9.15;2.65;;;;;;;;;;5041605;28;20048;-72
2022/05/15 15:03:08;;;;;;;9.23;2.38;;;;;;;;;;5041994;28;20037;-72
2022/05/15 15:05:47;;;;;;;9.20;2.47;;;;;;;;;;5042851;28;20036;-72
2022/05/15 15:08:21;;;;;;;9.50;2.40;;;;;;;;;;5042509;28;20040;-72
2022/05/15 15:10:47;;;;;;;11.63;2.47;;;;;;;;;;5042071;28;20098;-72
2022/05/15 15:13:14;;;;;;;8.18;2.25;;;;;;;;;;5037808;28;20064;-72
2022/05/15 15:15:41;;;;;;;10.75;2.55;;;;;;;;;;5052662;28;20063;-72